Time;durP1;ratioP1;P1;durP2;ratioP2;P2;SDS_P1;SDS_P2;PMS_P1;PMS_P2;Temp;Humidity;BMP_temperature;BMP_pressure;BME280_temperature;BME280_humidity;BME280_pressure;Samples;Min_cycle;Max_cycle;Signal;HPM_P1;HPM_P2
2021/10/06 00:02:12;;;;;;;9.73;2.10;;;12.30;99.90;;;;;;5093848;28;20035;-70
2021/10/06 00:04:38;;;;;;;11.57;2.55;;;12.20;99.90;;;;;;5094362;28;20028;-70
2021/10/06 00:07:04;;;;;;;7.72;1.83;;;12.20;99.90;;;;;;5094236;28;20024;-71
2021/10/06 00:09:30;;;;;;;10.90;2.05;;;12.20;99.90;;;;;;5094042;28;20024;-70
2021/10/06 00:11:56;;;;;;;8.55;2.25;;;12.20;99.90;;;;;;5093504;28;20040;-73
2021/10/06 00:14:21;;;;;;;6.57;1.60;;;12.20;99.90;;;;;;5093644;28;20484;-72
2021/10/06 00:16:47;;;;;;;8.73;1.83;;;12.10;99.90;;;;;;5093701;28;20446;-71
2021/10/06 00:19:13;;;;;;;6.47;1.67;;;12.10;99.90;;;;;;5093631;28;20024;-70
2021/10/06 00:21:39;;;;;;;9.88;1.80;;;12.10;99.90;;;;;;5092861;28;20027;-72
2021/10/06 00:24:06;;;;;;;8.57;2.40;;;12.20;99.90;;;;;;5093567;28;20032;-71
2021/10/06 00:26:32;;;;;;;7.10;1.80;;;12.10;99.90;;;;;;5094080;28;20024;-72
2021/10/06 00:28:57;;;;;;;10.40;1.83;;;12.10;99.90;;;;;;5093674;28;20024;-74
2021/10/06 00:31:23;;;;;;;12.38;1.92;;;12.10;99.90;;;;;;5093487;28;20020;-73
2021/10/06 00:33:49;;;;;;;13.68;2.00;;;12.00;99.90;;;;;;5093428;28;20389;-71
2021/10/06 00:36:14;;;;;;;11.60;1.38;;;12.00;99.90;;;;;;5093383;28;20388;-71
2021/10/06 00:38:40;;;;;;;6.65;2.05;;;12.00;99.90;;;;;;5093390;28;20032;-71
2021/10/06 00:41:06;;;;;;;11.10;1.98;;;12.00;99.90;;;;;;5093351;28;20410;-70
2021/10/06 00:43:32;;;;;;;7.85;2.15;;;12.00;99.90;;;;;;5093581;28;20028;-72
2021/10/06 00:45:58;;;;;;;6.13;1.33;;;12.00;99.90;;;;;;5093298;28;20024;-70
2021/10/06 00:48:23;;;;;;;8.05;1.85;;;12.00;99.90;;;;;;5093497;28;20031;-71
2021/10/06 00:50:49;;;;;;;10.15;2.97;;;11.90;99.90;;;;;;5093321;28;20016;-72
2021/10/06 00:53:15;;;;;;;6.32;1.55;;;11.90;99.90;;;;;;5093522;28;20020;-72
2021/10/06 00:55:41;;;;;;;5.30;1.42;;;12.00;99.90;;;;;;5093239;28;20024;-72
2021/10/06 00:58:07;;;;;;;6.82;2.10;;;11.90;99.90;;;;;;5093222;28;20054;-72
2021/10/06 01:00:33;;;;;;;5.57;2.30;;;11.90;99.90;;;;;;5093719;28;20020;-72
2021/10/06 01:02:59;;;;;;;5.57;2.08;;;11.80;99.90;;;;;;5093127;28;20480;-73
2021/10/06 01:05:25;;;;;;;7.75;1.75;;;11.80;99.90;;;;;;5093065;28;20028;-72
2021/10/06 01:07:51;;;;;;;7.78;1.75;;;11.90;99.90;;;;;;5093015;28;20084;-74
2021/10/06 01:10:17;;;;;;;9.93;1.90;;;11.80;99.90;;;;;;5093319;28;20036;-70
2021/10/06 01:12:43;;;;;;;11.15;2.28;;;11.90;99.90;;;;;;5093082;28;20016;-69
2021/10/06 01:15:12;;;;;;;8.23;2.15;;;11.80;99.90;;;;;;5093051;28;20490;-73
2021/10/06 01:17:38;;;;;;;8.25;1.77;;;11.80;99.90;;;;;;5093307;28;20098;-70
2021/10/06 01:20:05;;;;;;;8.00;1.83;;;11.80;99.90;;;;;;5093218;28;20107;-71
2021/10/06 01:22:31;;;;;;;8.45;1.63;;;11.80;99.90;;;;;;5092985;28;20035;-71
2021/10/06 01:25:00;;;;;;;7.88;1.58;;;11.80;99.90;;;;;;5093228;28;20020;-72
2021/10/06 01:27:25;;;;;;;11.13;2.05;;;11.80;99.90;;;;;;5092871;28;20145;-71
2021/10/06 01:29:51;;;;;;;4.93;1.33;;;11.80;99.90;;;;;;5092909;28;20548;-72
2021/10/06 01:32:18;;;;;;;7.72;1.90;;;11.80;99.90;;;;;;5091550;28;20063;-71
2021/10/06 01:34:55;;;;;;;7.22;2.30;;;11.70;99.90;;;;;;5096386;28;20434;-74
2021/10/06 01:37:20;;;;;;;7.05;1.90;;;11.70;99.90;;;;;;5096935;28;20036;-73
2021/10/06 01:39:46;;;;;;;6.18;1.60;;;11.60;99.90;;;;;;5096883;28;20210;-71
2021/10/06 01:42:11;;;;;;;7.30;1.60;;;11.60;99.90;;;;;;5096572;28;20451;-71
2021/10/06 01:44:37;;;;;;;9.02;1.85;;;11.60;99.90;;;;;;5096801;28;20372;-73
2021/10/06 01:47:03;;;;;;;10.30;2.15;;;11.60;99.90;;;;;;5096931;28;20024;-70
2021/10/06 01:49:28;;;;;;;8.05;2.80;;;11.60;99.90;;;;;;5096392;28;20016;-70
2021/10/06 01:51:54;;;;;;;9.90;1.90;;;11.70;99.90;;;;;;5096621;28;20430;-73
2021/10/06 01:54:20;;;;;;;12.85;2.63;;;11.70;99.90;;;;;;5096299;28;20543;-72
2021/10/06 01:56:46;;;;;;;8.50;1.67;;;11.50;99.90;;;;;;5096508;28;20024;-71
2021/10/06 01:59:11;;;;;;;10.07;2.35;;;11.50;99.90;;;;;;5096270;28;20016;-72
2021/10/06 02:01:37;;;;;;;9.07;2.10;;;11.50;99.90;;;;;;5096749;28;20024;-73
2021/10/06 02:04:03;;;;;;;8.70;2.10;;;11.50;99.90;;;;;;5096087;28;20017;-71
2021/10/06 02:06:30;;;;;;;4.72;1.85;;;11.60;99.90;;;;;;5096365;28;20020;-72
2021/10/06 02:08:56;;;;;;;9.40;1.88;;;11.50;99.90;;;;;;5096283;28;20027;-74
2021/10/06 02:11:21;;;;;;;10.70;2.13;;;11.50;99.90;;;;;;5095913;28;20048;-70
2021/10/06 02:13:47;;;;;;;13.85;2.10;;;11.50;99.90;;;;;;5095945;28;20410;-71
2021/10/06 02:16:13;;;;;;;12.23;1.98;;;11.50;99.90;;;;;;5096175;28;20028;-73
2021/10/06 02:18:38;;;;;;;10.38;2.17;;;11.50;99.90;;;;;;5095869;28;20024;-74
2021/10/06 02:21:04;;;;;;;5.85;1.65;;;11.50;99.90;;;;;;5095760;28;20495;-70
2021/10/06 02:23:30;;;;;;;5.90;1.85;;;11.40;99.90;;;;;;5095783;28;20137;-74
2021/10/06 02:25:56;;;;;;;9.10;1.77;;;11.40;99.90;;;;;;5095985;28;20396;-73
2021/10/06 02:28:22;;;;;;;9.25;2.05;;;11.50;99.90;;;;;;5095552;28;20502;-70
2021/10/06 02:30:49;;;;;;;9.68;1.73;;;11.40;99.90;;;;;;5095628;28;20020;-73
2021/10/06 02:33:15;;;;;;;6.80;1.65;;;11.40;99.90;;;;;;5095561;28;20361;-73
2021/10/06 02:35:40;;;;;;;7.28;1.80;;;11.40;99.90;;;;;;5095820;28;20030;-71
2021/10/06 02:38:06;;;;;;;5.43;1.70;;;11.40;99.90;;;;;;5095438;28;20020;-71
2021/10/06 02:40:32;;;;;;;6.47;2.00;;;11.30;99.90;;;;;;5095420;28;20028;-70
2021/10/06 02:42:57;;;;;;;10.10;1.73;;;11.30;99.90;;;;;;5095350;28;20030;-72
2021/10/06 02:45:23;;;;;;;12.77;2.35;;;11.30;99.90;;;;;;5094812;28;20032;-73
2021/10/06 02:47:49;;;;;;;7.82;1.90;;;11.30;99.90;;;;;;5095785;28;20073;-73
2021/10/06 02:50:19;;;;;;;14.70;2.78;;;11.30;99.90;;;;;;5095229;28;20527;-73
2021/10/06 02:52:45;;;;;;;13.00;2.35;;;11.30;99.90;;;;;;5095727;28;20389;-72
2021/10/06 02:55:11;;;;;;;7.25;1.85;;;11.20;99.90;;;;;;5095116;28;20035;-73
2021/10/06 02:57:37;;;;;;;4.47;1.30;;;11.30;99.90;;;;;;5095106;28;20020;-71
2021/10/06 03:00:07;;;;;;;7.68;1.60;;;11.20;99.90;;;;;;5095073;28;20028;-73
2021/10/06 03:02:33;;;;;;;7.57;2.13;;;11.30;99.90;;;;;;5095031;28;20103;-74
2021/10/06 03:04:58;;;;;;;6.55;1.70;;;11.20;99.90;;;;;;5094977;28;20036;-70
2021/10/06 03:07:24;;;;;;;7.38;1.65;;;11.30;99.90;;;;;;5095371;28;20162;-71
2021/10/06 03:09:50;;;;;;;6.30;1.55;;;11.30;99.90;;;;;;5094912;28;20031;-73
2021/10/06 03:12:15;;;;;;;6.85;1.50;;;11.30;99.90;;;;;;5094692;28;20040;-73
2021/10/06 03:14:41;;;;;;;6.25;1.70;;;11.10;99.90;;;;;;5094760;28;20066;-73
2021/10/06 03:17:07;;;;;;;6.30;1.65;;;11.00;99.90;;;;;;5094703;28;20023;-72
2021/10/06 03:19:32;;;;;;;7.43;1.75;;;11.00;99.90;;;;;;5094650;28;20391;-72
2021/10/06 03:21:58;;;;;;;7.18;1.27;;;11.00;99.90;;;;;;5094562;28;20016;-72
2021/10/06 03:24:24;;;;;;;7.47;2.22;;;11.00;99.90;;;;;;5094816;28;20028;-73
2021/10/06 03:26:49;;;;;;;7.50;1.63;;;11.00;99.90;;;;;;5094719;28;20468;-73
2021/10/06 03:29:15;;;;;;;8.57;1.92;;;11.00;99.90;;;;;;5094728;28;20526;-72
2021/10/06 03:31:40;;;;;;;9.10;1.98;;;11.00;99.90;;;;;;5094715;28;20426;-74
2021/10/06 03:34:06;;;;;;;7.43;1.83;;;11.10;99.90;;;;;;5094652;28;20028;-70
2021/10/06 03:36:32;;;;;;;8.38;1.70;;;11.10;99.90;;;;;;5094623;28;20020;-74
2021/10/06 03:38:57;;;;;;;11.18;2.30;;;11.00;99.90;;;;;;5094583;28;20032;-71
2021/10/06 03:41:23;;;;;;;7.53;1.33;;;11.00;99.90;;;;;;5094515;28;20400;-72
2021/10/06 03:43:49;;;;;;;11.10;2.10;;;11.00;99.90;;;;;;5094196;28;20442;-70
2021/10/06 03:46:14;;;;;;;12.55;2.13;;;11.10;99.90;;;;;;5094434;28;20429;-71
2021/10/06 03:48:40;;;;;;;8.80;1.73;;;11.10;99.90;;;;;;5094028;28;20392;-71
2021/10/06 03:51:06;;;;;;;9.45;1.60;;;11.10;99.90;;;;;;5094061;28;20020;-74
2021/10/06 03:53:31;;;;;;;9.07;1.85;;;11.10;99.90;;;;;;5094020;28;20030;-71
2021/10/06 03:55:57;;;;;;;4.50;1.25;;;11.00;99.90;;;;;;5094031;28;20099;-72
2021/10/06 03:58:22;;;;;;;6.65;1.67;;;11.00;99.90;;;;;;5093961;28;20030;-72
2021/10/06 04:00:48;;;;;;;6.53;2.25;;;11.00;99.90;;;;;;5093934;28;20388;-72
2021/10/06 04:03:14;;;;;;;7.13;1.50;;;11.10;99.90;;;;;;5093914;28;20056;-72
2021/10/06 04:05:41;;;;;;;9.07;1.73;;;11.10;99.90;;;;;;5094161;28;20024;-72
2021/10/06 04:08:07;;;;;;;7.78;1.80;;;11.10;99.90;;;;;;5093731;28;20024;-73
2021/10/06 04:10:34;;;;;;;10.05;2.08;;;11.10;99.90;;;;;;5093569;28;20127;-71
2021/10/06 04:13:00;;;;;;;7.15;1.70;;;11.10;99.90;;;;;;5092227;28;20388;-72
2021/10/06 04:15:26;;;;;;;8.10;2.13;;;11.20;99.90;;;;;;5092409;28;20020;-73
2021/10/06 04:17:51;;;;;;;8.13;1.50;;;11.10;99.90;;;;;;5093632;28;20032;-70
2021/10/06 04:20:18;;;;;;;12.98;1.85;;;11.00;99.90;;;;;;5093830;28;20024;-72
2021/10/06 04:22:43;;;;;;;5.82;1.60;;;11.00;99.90;;;;;;5093852;28;20024;-69
2021/10/06 04:25:10;;;;;;;7.25;2.38;;;11.00;99.90;;;;;;5093568;28;20031;-71
2021/10/06 04:27:36;;;;;;;9.80;1.60;;;11.00;99.90;;;;;;5093440;28;20028;-71
2021/10/06 04:30:05;;;;;;;8.55;1.90;;;11.00;99.90;;;;;;5093514;28;20099;-73
2021/10/06 04:32:30;;;;;;;5.85;1.95;;;11.00;99.90;;;;;;5093467;28;20385;-70
2021/10/06 04:34:56;;;;;;;7.65;1.73;;;11.00;99.90;;;;;;5093442;28;20016;-71
2021/10/06 04:37:22;;;;;;;10.68;2.30;;;11.00;99.90;;;;;;5093417;28;20504;-72
2021/10/06 04:39:47;;;;;;;12.00;2.13;;;11.10;99.90;;;;;;5093406;28;20051;-70
2021/10/06 04:42:13;;;;;;;9.00;2.13;;;11.00;99.90;;;;;;5093363;28;20028;-71
2021/10/06 04:44:38;;;;;;;13.27;2.05;;;10.90;99.90;;;;;;5093321;28;20391;-70
2021/10/06 04:47:04;;;;;;;12.75;2.45;;;10.90;99.90;;;;;;5093248;28;20496;-74
2021/10/06 04:49:30;;;;;;;18.33;2.38;;;10.90;99.90;;;;;;5093277;28;20514;-73
2021/10/06 04:51:55;;;;;;;6.93;2.03;;;10.90;99.90;;;;;;5093271;28;20024;-72
2021/10/06 04:54:21;;;;;;;8.18;2.05;;;10.90;99.90;;;;;;5093267;28;20020;-73
2021/10/06 04:56:47;;;;;;;10.40;2.40;;;10.90;99.90;;;;;;5093502;28;20025;-73
2021/10/06 04:59:12;;;;;;;8.50;1.90;;;11.00;99.90;;;;;;5093441;28;20024;-73
2021/10/06 05:01:38;;;;;;;9.88;1.83;;;11.00;99.90;;;;;;5093166;28;20024;-75
2021/10/06 05:04:03;;;;;;;8.15;1.83;;;11.00;99.90;;;;;;5093132;28;20361;-73
2021/10/06 05:06:29;;;;;;;8.55;1.73;;;11.00;99.90;;;;;;5093396;28;20051;-69
2021/10/06 05:08:55;;;;;;;7.97;2.22;;;11.00;99.90;;;;;;5095460;28;20063;-72
2021/10/06 05:11:22;;;;;;;7.85;1.77;;;11.00;99.90;;;;;;5096906;28;20144;-70
2021/10/06 05:13:49;;;;;;;9.98;2.17;;;11.00;99.90;;;;;;5097380;28;20016;-73
2021/10/06 05:16:15;;;;;;;5.45;1.50;;;10.90;99.90;;;;;;5097060;28;20023;-73
2021/10/06 05:18:40;;;;;;;7.88;1.88;;;11.00;99.90;;;;;;5097028;28;20024;-74
2021/10/06 05:21:06;;;;;;;7.70;1.65;;;11.00;99.90;;;;;;5097181;28;20110;-72
2021/10/06 05:23:32;;;;;;;10.63;2.13;;;11.00;99.90;;;;;;5097483;28;20028;-73
2021/10/06 05:25:58;;;;;;;12.23;1.98;;;11.00;99.90;;;;;;5097153;28;20031;-72
2021/10/06 05:28:23;;;;;;;8.23;1.80;;;11.00;99.90;;;;;;5096790;28;20020;-72
2021/10/06 05:30:49;;;;;;;6.55;1.48;;;10.90;99.90;;;;;;5096806;28;20054;-71
2021/10/06 05:33:15;;;;;;;10.18;2.25;;;11.00;99.90;;;;;;5096742;28;20484;-71
2021/10/06 05:35:41;;;;;;;12.30;3.20;;;10.90;99.90;;;;;;5096714;28;20434;-72
2021/10/06 05:38:07;;;;;;;8.23;1.73;;;10.90;99.90;;;;;;5095387;28;20059;-71
2021/10/06 05:40:32;;;;;;;11.73;2.00;;;11.00;99.90;;;;;;5096890;28;20128;-71
2021/10/06 05:42:58;;;;;;;13.75;2.85;;;10.90;99.90;;;;;;5096573;28;20066;-70
2021/10/06 05:45:24;;;;;;;11.65;2.20;;;10.90;99.90;;;;;;5096779;28;20434;-72
2021/10/06 05:47:50;;;;;;;10.38;2.70;;;10.90;99.90;;;;;;5096376;28;20020;-71
2021/10/06 05:50:16;;;;;;;9.20;1.92;;;10.90;99.90;;;;;;5096449;28;20495;-71
2021/10/06 05:52:41;;;;;;;8.82;1.58;;;10.90;99.90;;;;;;5096684;28;20020;-71
2021/10/06 05:55:08;;;;;;;9.30;1.88;;;11.00;99.90;;;;;;5096673;28;20028;-75
2021/10/06 05:57:33;;;;;;;10.98;1.90;;;10.90;99.90;;;;;;5096271;28;20091;-72
2021/10/06 05:59:59;;;;;;;4.50;1.35;;;10.90;99.90;;;;;;5096273;28;20112;-70
2021/10/06 06:05:09;;;;;;;9.25;2.20;;;10.90;99.90;;;;;;5096689;28;20056;-72
2021/10/06 06:07:34;;;;;;;9.60;1.88;;;10.90;99.90;;;;;;5096013;28;20491;-72
2021/10/06 06:10:00;;;;;;;14.73;2.35;;;10.90;99.90;;;;;;5095850;28;20365;-75
2021/10/06 06:12:25;;;;;;;3.03;1.30;;;10.80;99.90;;;;;;5096311;28;20031;-71
2021/10/06 06:14:51;;;;;;;6.80;1.63;;;10.80;99.90;;;;;;5095995;28;20028;-70
2021/10/06 06:17:17;;;;;;;12.43;2.20;;;10.80;99.90;;;;;;5095926;28;20028;-70
2021/10/06 06:19:43;;;;;;;11.30;2.13;;;10.90;99.90;;;;;;5094583;28;20028;-71
2021/10/06 06:22:09;;;;;;;9.52;2.17;;;10.80;99.90;;;;;;5096410;28;20027;-71
2021/10/06 06:24:34;;;;;;;9.82;2.05;;;10.80;99.90;;;;;;5095759;28;20024;-73
2021/10/06 06:27:00;;;;;;;8.68;1.73;;;10.80;99.90;;;;;;5095638;28;20027;-72
2021/10/06 06:29:26;;;;;;;8.07;2.40;;;10.80;99.90;;;;;;5095658;28;20077;-71
2021/10/06 06:31:51;;;;;;;12.77;2.47;;;10.70;99.90;;;;;;5095904;28;20070;-71
2021/10/06 06:34:17;;;;;;;7.95;2.05;;;10.80;99.90;;;;;;5095646;28;20024;-74
2021/10/06 06:36:43;;;;;;;4.05;1.30;;;10.80;99.90;;;;;;5095788;28;20063;-70
2021/10/06 06:39:08;;;;;;;11.13;1.50;;;10.70;99.90;;;;;;5095775;28;20063;-73
2021/10/06 06:41:34;;;;;;;8.90;2.13;;;10.80;99.90;;;;;;5095749;28;20369;-71
2021/10/06 06:44:02;;;;;;;11.75;2.13;;;10.80;99.90;;;;;;5095693;28;20031;-71
2021/10/06 06:46:28;;;;;;;12.65;1.98;;;10.90;99.90;;;;;;5095347;28;20480;-72
2021/10/06 06:48:53;;;;;;;6.70;1.80;;;11.00;99.90;;;;;;5095501;28;20024;-71
2021/10/06 06:51:19;;;;;;;9.93;2.13;;;11.10;99.90;;;;;;5095243;28;20024;-72
2021/10/06 06:53:45;;;;;;;10.15;2.05;;;11.10;99.90;;;;;;5095188;28;20418;-74
2021/10/06 06:56:10;;;;;;;9.68;1.70;;;11.10;99.90;;;;;;5095398;28;20051;-70
2021/10/06 06:58:36;;;;;;;9.68;2.08;;;11.10;99.90;;;;;;5095414;28;20578;-72
2021/10/06 07:01:02;;;;;;;8.82;2.10;;;11.20;99.90;;;;;;5095298;28;20032;-70
2021/10/06 07:03:27;;;;;;;9.93;2.28;;;11.20;99.90;;;;;;5095266;28;20020;-71
2021/10/06 07:05:53;;;;;;;7.07;1.88;;;11.20;99.90;;;;;;5095230;28;20032;-71
2021/10/06 07:08:19;;;;;;;9.38;2.15;;;11.20;99.90;;;;;;5095120;28;20430;-70
2021/10/06 07:10:44;;;;;;;10.90;2.47;;;11.30;99.90;;;;;;5094660;28;20416;-70
2021/10/06 07:13:10;;;;;;;8.80;1.80;;;11.30;99.90;;;;;;5095415;28;20074;-71
2021/10/06 07:15:36;;;;;;;7.15;1.50;;;11.30;99.90;;;;;;5095023;28;20410;-71
2021/10/06 07:18:02;;;;;;;36.72;4.35;;;11.40;99.90;;;;;;5095012;28;20388;-73
2021/10/06 07:20:27;;;;;;;9.13;1.70;;;11.40;99.90;;;;;;5094815;28;20034;-72
2021/10/06 07:22:53;;;;;;;9.52;1.80;;;11.40;99.90;;;;;;5094610;28;20431;-70
2021/10/06 07:25:19;;;;;;;7.93;1.60;;;11.40;99.90;;;;;;5094570;28;20506;-71
2021/10/06 07:27:45;;;;;;;6.75;1.67;;;11.40;99.90;;;;;;5094458;28;20369;-71
2021/10/06 07:30:12;;;;;;;11.48;1.83;;;11.50;99.90;;;;;;5094488;28;20036;-72
2021/10/06 07:32:37;;;;;;;39.63;3.90;;;11.60;99.90;;;;;;5094155;28;20028;-73
2021/10/06 07:35:04;;;;;;;5.65;1.50;;;11.60;99.90;;;;;;5094385;28;20028;-75
2021/10/06 07:37:30;;;;;;;6.65;1.38;;;11.70;99.90;;;;;;5094232;28;20032;-73
2021/10/06 07:39:56;;;;;;;6.68;1.73;;;11.70;99.90;;;;;;5094404;28;20024;-72
2021/10/06 07:42:22;;;;;;;9.30;1.40;;;11.80;99.90;;;;;;5094275;28;20039;-71
2021/10/06 07:44:48;;;;;;;8.45;2.10;;;11.90;99.90;;;;;;5094298;28;20020;-72
2021/10/06 07:47:14;;;;;;;7.60;1.95;;;12.10;99.90;;;;;;5094151;28;20021;-71
2021/10/06 07:49:40;;;;;;;5.22;1.48;;;12.20;99.90;;;;;;5094157;28;20499;-70
2021/10/06 07:52:07;;;;;;;5.97;2.25;;;12.30;99.90;;;;;;5094375;28;20024;-72
2021/10/06 07:54:33;;;;;;;17.40;2.53;;;12.40;99.90;;;;;;5094014;28;20024;-74
2021/10/06 07:56:59;;;;;;;11.98;1.90;;;12.40;99.90;;;;;;5094006;28;20024;-72
2021/10/06 07:59:25;;;;;;;7.53;2.33;;;12.50;99.90;;;;;;5094001;28;20024;-70
2021/10/06 08:01:50;;;;;;;12.65;2.88;;;12.70;99.90;;;;;;5093952;28;20089;-70
2021/10/06 08:04:16;;;;;;;13.77;2.08;;;12.90;99.90;;;;;;5094144;28;20031;-71
2021/10/06 08:06:42;;;;;;;9.57;1.88;;;13.00;99.90;;;;;;5093832;28;20028;-70
2021/10/06 08:09:07;;;;;;;12.93;5.22;;;13.10;99.90;;;;;;5094009;28;20031;-71
2021/10/06 08:11:34;;;;;;;16.92;7.38;;;13.20;99.90;;;;;;5093653;28;20200;-75
2021/10/06 08:14:01;;;;;;;15.75;6.13;;;13.40;99.90;;;;;;5093756;28;20040;-73
2021/10/06 08:16:26;;;;;;;15.68;5.32;;;13.70;99.90;;;;;;5093736;28;20024;-71
2021/10/06 08:18:52;;;;;;;11.07;3.35;;;13.80;99.90;;;;;;5093672;28;20401;-72
2021/10/06 08:21:18;;;;;;;10.25;2.67;;;14.10;99.90;;;;;;5093589;28;20031;-74
2021/10/06 08:23:43;;;;;;;8.63;2.60;;;14.30;99.90;;;;;;5093862;28;20028;-71
2021/10/06 08:26:09;;;;;;;12.73;4.55;;;14.40;99.90;;;;;;5093571;28;20094;-73
2021/10/06 08:28:35;;;;;;;10.07;3.70;;;14.50;99.90;;;;;;5093702;28;20028;-71
2021/10/06 08:31:00;;;;;;;14.65;4.05;;;14.60;99.90;;;;;;5093854;28;20031;-71
2021/10/06 08:33:26;;;;;;;11.00;3.55;;;14.80;99.90;;;;;;5093501;28;20013;-71
2021/10/06 08:35:52;;;;;;;26.67;4.93;;;15.20;99.90;;;;;;5093700;28;20441;-71
2021/10/06 08:38:19;;;;;;;7.10;3.13;;;15.50;99.90;;;;;;5093405;28;20499;-72
2021/10/06 08:40:44;;;;;;;11.45;2.90;;;15.70;99.90;;;;;;5093917;28;20031;-71
2021/10/06 08:43:10;;;;;;;9.93;2.58;;;15.80;99.90;;;;;;5092728;28;20016;-72
2021/10/06 08:45:38;;;;;;;12.10;2.67;;;16.00;99.90;;;;;;5093347;28;20039;-72
2021/10/06 08:48:08;;;;;;;20.88;5.07;;;16.30;99.90;;;;;;5093539;28;20472;-71
2021/10/06 08:50:36;;;;;;;10.68;2.72;;;16.80;99.90;;;;;;5093298;28;20485;-72
2021/10/06 08:53:03;;;;;;;7.40;2.35;;;17.10;99.90;;;;;;5093233;28;20017;-72
2021/10/06 08:55:29;;;;;;;10.32;2.60;;;17.20;99.90;;;;;;5093240;28;20027;-71
2021/10/06 08:57:55;;;;;;;8.20;3.17;;;17.20;99.90;;;;;;5093260;28;20028;-71
2021/10/06 09:00:21;;;;;;;6.95;2.92;;;17.20;99.90;;;;;;5093179;28;20514;-71
2021/10/06 09:02:47;;;;;;;10.07;2.90;;;17.10;99.90;;;;;;5093167;28;20020;-71
2021/10/06 09:05:13;;;;;;;10.70;2.70;;;17.50;99.90;;;;;;5093211;28;20060;-71
2021/10/06 09:08:00;;;;;;;10.88;2.40;;;17.80;99.90;;;;;;5093028;28;20465;-71
2021/10/06 09:10:29;;;;;;;8.00;2.45;;;18.20;99.90;;;;;;5092972;28;20052;-71
2021/10/06 09:13:04;;;;;;;9.45;2.45;;;18.10;99.90;;;;;;5093438;28;20487;-71
2021/10/06 09:15:50;;;;;;;7.20;2.00;;;18.10;99.60;;;;;;5093619;28;20050;-71
2021/10/06 09:18:23;;;;;;;7.43;2.35;;;18.50;98.90;;;;;;5093413;28;20416;-71
2021/10/06 09:20:50;;;;;;;8.30;2.40;;;18.70;98.60;;;;;;5093165;28;20103;-71
2021/10/06 09:23:21;;;;;;;11.43;2.60;;;19.00;97.70;;;;;;5093013;28;20032;-71
2021/10/06 09:25:58;;;;;;;6.55;1.77;;;19.20;96.70;;;;;;5093305;28;20112;-71
2021/10/06 09:28:29;;;;;;;10.55;2.72;;;19.20;97.30;;;;;;5093459;28;20376;-71
2021/10/06 09:31:00;;;;;;;9.63;2.42;;;18.80;97.70;;;;;;5093214;28;20024;-71
2021/10/06 09:33:40;;;;;;;7.45;2.10;;;19.00;97.20;;;;;;5092904;28;20023;-71
2021/10/06 09:36:11;;;;;;;5.97;2.40;;;19.10;96.50;;;;;;5093343;28;20032;-71
2021/10/06 09:38:42;;;;;;;10.52;2.30;;;19.20;96.60;;;;;;5092955;28;20016;-71
2021/10/06 09:41:32;;;;;;;6.88;1.80;;;19.00;97.70;;;;;;5093198;28;20107;-70
2021/10/06 09:44:04;;;;;;;8.02;2.08;;;19.10;97.40;;;;;;5093478;28;20028;-71
2021/10/06 09:46:49;;;;;;;9.52;2.08;;;19.30;96.80;;;;;;5092813;28;20028;-71
2021/10/06 09:49:18;;;;;;;7.35;2.40;;;19.30;96.20;;;;;;5092688;28;20016;-71
2021/10/06 09:51:44;;;;;;;10.43;2.30;;;19.40;95.90;;;;;;5093006;28;20380;-70
2021/10/06 09:54:10;;;;;;;8.52;1.83;;;19.50;96.10;;;;;;5093534;28;20035;-70
2021/10/06 09:56:42;;;;;;;7.65;1.70;;;19.70;95.80;;;;;;5096315;28;20552;-70
2021/10/06 09:59:10;;;;;;;4.90;1.70;;;19.80;94.70;;;;;;5096567;28;20024;-71
2021/10/06 10:01:39;;;;;;;7.72;1.90;;;19.70;94.30;;;;;;5096500;28;20024;-71
2021/10/06 10:04:07;;;;;;;6.70;2.65;;;19.70;95.90;;;;;;5096816;28;20020;-71
2021/10/06 10:06:33;;;;;;;5.63;1.65;;;19.70;95.50;;;;;;5096126;28;20028;-71
2021/10/06 10:09:02;;;;;;;12.18;2.22;;;19.30;95.80;;;;;;5096315;28;20028;-70
2021/10/06 10:11:29;;;;;;;8.25;1.95;;;19.20;96.40;;;;;;5095879;28;20044;-71
2021/10/06 10:13:55;;;;;;;8.90;2.70;;;19.20;97.20;;;;;;5095990;28;20009;-71
2021/10/06 10:16:22;;;;;;;6.95;1.77;;;18.80;95.90;;;;;;5095984;28;20396;-71
2021/10/06 10:18:48;;;;;;;8.68;2.22;;;18.60;97.70;;;;;;5096179;28;20024;-71
2021/10/06 10:21:18;;;;;;;5.82;1.67;;;18.60;97.50;;;;;;5095829;28;20118;-71
2021/10/06 10:23:43;;;;;;;5.85;1.48;;;18.60;97.60;;;;;;5096405;28;20020;-71
2021/10/06 10:26:23;;;;;;;7.15;1.40;;;18.40;96.30;;;;;;5096297;28;20028;-71
2021/10/06 10:28:49;;;;;;;7.40;1.17;;;18.20;97.10;;;;;;5095694;28;20476;-71
2021/10/06 10:31:18;;;;;;;6.72;1.13;;;18.10;97.20;;;;;;5095919;28;20034;-71
2021/10/06 10:33:48;;;;;;;5.93;1.63;;;18.10;97.70;;;;;;5095885;28;20020;-71
2021/10/06 10:36:35;;;;;;;5.80;1.33;;;18.00;96.90;;;;;;5095634;28;20081;-71
2021/10/06 10:39:05;;;;;;;7.00;1.52;;;18.10;98.10;;;;;;5096119;28;20020;-71
2021/10/06 10:41:54;;;;;;;7.35;1.40;;;18.10;98.40;;;;;;5095578;28;20112;-71
2021/10/06 10:44:24;;;;;;;7.13;1.38;;;18.00;99.10;;;;;;5095751;28;20103;-71
2021/10/06 10:47:00;;;;;;;;;;;17.90;99.00;;;;;;5095777;28;20039;-71
2021/10/06 10:49:26;;;;;;;9.13;1.58;;;17.90;98.50;;;;;;5095237;28;19908;-71
2021/10/06 10:51:57;;;;;;;6.90;1.42;;;17.80;99.60;;;;;;5095536;28;20107;-71
2021/10/06 10:54:40;;;;;;;5.00;1.25;;;17.80;99.10;;;;;;5095198;28;20024;-70
2021/10/06 10:57:22;;;;;;;6.30;1.08;;;17.90;99.40;;;;;;5095527;28;20047;-71
2021/10/06 10:59:54;;;;;;;8.90;1.95;;;17.90;97.80;;;;;;5095705;28;20099;-71
2021/10/06 11:02:33;;;;;;;3.38;1.13;;;17.90;99.10;;;;;;5095704;28;20016;-71
2021/10/06 11:05:05;;;;;;;30.00;3.77;;;17.80;99.00;;;;;;5095589;28;20026;-71
2021/10/06 11:07:31;;;;;;;4.55;1.20;;;17.60;98.40;;;;;;5094590;28;20067;-71
2021/10/06 11:09:59;;;;;;;7.38;1.30;;;17.50;99.40;;;;;;5094641;28;20362;-71
2021/10/06 11:12:24;;;;;;;5.85;1.08;;;17.70;98.20;;;;;;5094949;28;20541;-71
2021/10/06 11:15:26;;;;;;;20.10;2.45;;;17.80;99.30;;;;;;5094842;28;20024;-71
2021/10/06 11:18:06;;;;;;;5.22;1.33;;;17.90;98.10;;;;;;5012814;28;20033;-71
2021/10/06 11:20:51;;;;;;;6.30;1.40;;;17.70;99.60;;;;;;5086415;28;20032;-71
2021/10/06 11:23:30;;;;;;;6.45;1.30;;;17.70;99.90;;;;;;5094599;28;20093;-71
2021/10/06 11:25:57;;;;;;;3.65;1.20;;;17.80;99.50;;;;;;5095104;28;20024;-71
2021/10/06 11:28:23;;;;;;;4.32;0.98;;;17.90;99.40;;;;;;5094792;28;20028;-71
2021/10/06 11:30:56;;;;;;;4.95;0.90;;;18.00;97.80;;;;;;5094546;28;20027;-71
2021/10/06 11:33:26;;;;;;;7.68;1.67;;;18.00;96.70;;;;;;5094785;28;20020;-71
2021/10/06 11:36:04;;;;;;;6.95;1.13;;;18.00;96.20;;;;;;5094738;28;20024;-70
2021/10/06 11:38:30;;;;;;;4.40;1.30;;;18.10;97.20;;;;;;5094971;28;20055;-71
2021/10/06 11:40:55;;;;;;;9.02;1.38;;;18.10;96.70;;;;;;5094352;28;20495;-71
2021/10/06 11:43:21;;;;;;;6.85;1.50;;;18.20;96.80;;;;;;5094322;28;20032;-71
2021/10/06 11:45:50;;;;;;;5.03;1.08;;;18.30;98.10;;;;;;5094268;28;20027;-71
2021/10/06 11:48:15;;;;;;;4.95;0.90;;;18.40;96.00;;;;;;5094408;28;20400;-71
2021/10/06 11:50:43;;;;;;;18.75;3.10;;;18.60;94.70;;;;;;5094401;28;20028;-71
2021/10/06 11:53:09;;;;;;;4.38;1.27;;;18.70;96.30;;;;;;5094127;28;20024;-71
2021/10/06 11:55:47;;;;;;;7.93;1.20;;;18.80;94.70;;;;;;5094346;28;20016;-71
2021/10/06 11:58:31;;;;;;;73.20;7.05;;;18.80;93.60;;;;;;5094083;28;20496;-71
2021/10/06 12:01:11;;;;;;;5.78;1.38;;;18.80;94.00;;;;;;5094349;28;20031;-71
2021/10/06 12:03:38;;;;;;;6.35;1.38;;;18.80;94.20;;;;;;5094606;28;20020;-71
2021/10/06 12:06:06;;;;;;;9.18;1.40;;;19.00;95.60;;;;;;5093901;28;20024;-71
2021/10/06 12:08:32;;;;;;;10.65;5.88;;;19.10;95.10;;;;;;5093780;28;20461;-71
2021/10/06 12:10:58;;;;;;;12.25;2.65;;;19.10;94.20;;;;;;5093586;28;20115;-71
2021/10/06 12:13:34;;;;;;;4.78;1.42;;;19.00;93.10;;;;;;5094043;28;20096;-70
2021/10/06 12:16:00;;;;;;;6.15;1.80;;;18.90;93.40;;;;;;5093777;28;20084;-71
2021/10/06 12:18:25;;;;;;;4.07;1.52;;;18.90;94.20;;;;;;5093059;28;20450;-71
2021/10/06 12:20:51;;;;;;;8.23;1.60;;;19.00;93.50;;;;;;5093559;28;20473;-71
2021/10/06 12:23:25;;;;;;;16.75;11.00;;;19.00;93.30;;;;;;5093930;28;20483;-71
2021/10/06 12:25:55;;;;;;;20.55;13.48;;;19.00;93.20;;;;;;5094161;28;20099;-71
2021/10/06 12:28:21;;;;;;;9.43;1.88;;;18.90;93.30;;;;;;5093757;28;20385;-71
2021/10/06 12:30:54;;;;;;;4.82;1.33;;;18.90;93.90;;;;;;5093532;28;20024;-71
2021/10/06 12:33:25;;;;;;;14.57;11.35;;;18.90;93.50;;;;;;5093547;28;20468;-70
2021/10/06 12:35:54;;;;;;;5.30;1.42;;;18.80;92.70;;;;;;5093529;28;20029;-71
2021/10/06 12:38:21;;;;;;;6.63;1.23;;;18.70;93.50;;;;;;5093461;28;20047;-71
2021/10/06 12:40:52;;;;;;;3.13;1.00;;;18.70;93.80;;;;;;5093420;28;20063;-71
2021/10/06 12:43:28;;;;;;;4.68;1.48;;;18.60;93.70;;;;;;5093414;28;20044;-71
2021/10/06 12:46:13;;;;;;;3.28;1.42;;;18.60;94.50;;;;;;5093688;28;20035;-71
2021/10/06 12:48:45;;;;;;;2.88;1.27;;;18.50;94.50;;;;;;5093837;28;20089;-71